Time;durP1;ratioP1;P1;durP2;ratioP2;P2;SDS_P1;SDS_P2;PMS_P1;PMS_P2;Temp;Humidity;BMP_temperature;BMP_pressure;BME280_temperature;BME280_humidity;BME280_pressure;Samples;Min_cycle;Max_cycle;Signal;HPM_P1;HPM_P2
2023/12/21 00:00:49;;;;;;;7.23;2.20;;;10.80;99.90;;;;;;5034306;28;20174;-88
2023/12/21 00:03:25;;;;;;;9.40;3.10;;;10.80;99.90;;;;;;5035798;28;20245;-88
2023/12/21 00:05:51;;;;;;;9.30;2.70;;;10.90;99.90;;;;;;5034588;28;20182;-89
2023/12/21 00:08:16;;;;;;;9.97;3.20;;;10.80;99.90;;;;;;5034679;28;20187;-89
2023/12/21 00:10:45;;;;;;;8.17;2.47;;;10.80;99.90;;;;;;5034445;28;20189;-89
2023/12/21 00:13:23;;;;;;;7.83;2.80;;;10.80;99.90;;;;;;5034278;28;20178;-89
2023/12/21 00:15:49;;;;;;;9.97;3.00;;;10.80;99.90;;;;;;5033139;28;20708;-88
2023/12/21 00:18:15;;;;;;;10.00;3.03;;;10.70;99.90;;;;;;5033874;28;20273;-86
2023/12/21 00:20:40;;;;;;;10.17;2.53;;;10.70;99.90;;;;;;5033527;28;20276;-87
2023/12/21 00:23:06;;;;;;;10.03;2.70;;;10.70;99.90;;;;;;5035251;28;20183;-85
2023/12/21 00:25:31;;;;;;;12.97;3.07;;;10.70;99.90;;;;;;5034108;28;20197;-86
2023/12/21 00:27:58;;;;;;;8.83;2.93;;;10.70;99.90;;;;;;5034569;28;20692;-81
2023/12/21 00:30:23;;;;;;;7.63;2.90;;;10.80;99.90;;;;;;5032419;28;20653;-84
2023/12/21 00:32:49;;;;;;;9.50;3.03;;;10.80;99.90;;;;;;5031713;28;20180;-87
2023/12/21 00:35:15;;;;;;;11.43;2.90;;;10.80;99.90;;;;;;5032779;28;20536;-83
2023/12/21 00:37:41;;;;;;;12.30;2.83;;;10.70;99.90;;;;;;5032957;28;20221;-83
2023/12/21 00:40:07;;;;;;;9.40;2.93;;;10.80;99.90;;;;;;5031742;28;20179;-82
2023/12/21 00:42:33;;;;;;;10.00;2.93;;;10.90;99.90;;;;;;5032598;28;20182;-84
2023/12/21 00:44:59;;;;;;;10.87;3.37;;;10.90;99.90;;;;;;5032548;28;20171;-86
2023/12/21 00:47:25;;;;;;;11.40;3.70;;;10.90;99.90;;;;;;5033463;28;20175;-88
2023/12/21 00:49:51;;;;;;;7.93;2.93;;;10.90;99.90;;;;;;5033562;28;20186;-89
2023/12/21 00:52:16;;;;;;;11.60;3.20;;;10.80;99.90;;;;;;5034845;28;20179;-87
2023/12/21 00:54:42;;;;;;;10.20;2.60;;;10.70;99.90;;;;;;5033290;28;20184;-85
2023/12/21 00:57:08;;;;;;;9.53;2.90;;;10.70;99.90;;;;;;5032438;28;20209;-85
2023/12/21 00:59:33;;;;;;;13.60;3.60;;;10.70;99.90;;;;;;5032935;28;20248;-88
2023/12/21 01:01:59;;;;;;;14.03;3.27;;;10.70;99.90;;;;;;5032460;28;20244;-90
2023/12/21 01:04:25;;;;;;;14.27;3.33;;;10.70;99.90;;;;;;5033341;28;20300;-87
2023/12/21 01:06:50;;;;;;;15.77;4.37;;;10.70;99.90;;;;;;5032684;28;20199;-86
2023/12/21 01:09:16;;;;;;;11.00;2.83;;;10.70;99.90;;;;;;5032863;28;20216;-88
2023/12/21 01:11:42;;;;;;;14.17;3.23;;;10.80;99.90;;;;;;5032870;28;20679;-87
2023/12/21 01:14:07;;;;;;;14.50;3.73;;;10.70;99.90;;;;;;5031194;28;20688;-87
2023/12/21 01:16:33;;;;;;;10.20;3.30;;;10.70;99.90;;;;;;5033009;28;20205;-86
2023/12/21 01:18:59;;;;;;;11.83;3.83;;;10.80;99.90;;;;;;5032827;28;20181;-88
2023/12/21 01:21:25;;;;;;;10.53;3.13;;;10.70;99.90;;;;;;5031505;28;20175;-86
2023/12/21 01:23:50;;;;;;;12.03;3.30;;;10.70;99.90;;;;;;5033002;28;20634;-86
2023/12/21 01:26:16;;;;;;;14.23;3.80;;;10.70;99.90;;;;;;5032288;28;20230;-87
2023/12/21 01:28:42;;;;;;;11.43;3.80;;;10.70;99.90;;;;;;5031559;28;20185;-88
2023/12/21 01:31:08;;;;;;;14.13;4.10;;;10.70;99.90;;;;;;5032703;28;20606;-88
2023/12/21 01:33:34;;;;;;;11.03;3.20;;;10.70;99.90;;;;;;5032098;28;20170;-83
2023/12/21 01:36:04;;;;;;;10.20;3.57;;;10.70;99.90;;;;;;5031139;28;20202;-82
2023/12/21 01:38:30;;;;;;;15.77;3.90;;;10.80;99.90;;;;;;5032553;28;20653;-86
2023/12/21 01:40:55;;;;;;;14.40;3.50;;;10.80;99.90;;;;;;5032795;28;20177;-87
2023/12/21 01:43:22;;;;;;;17.43;3.97;;;10.80;99.90;;;;;;5031927;28;20268;-88
2023/12/21 01:45:48;;;;;;;15.30;4.53;;;10.80;99.90;;;;;;5032149;28;20220;-87
2023/12/21 01:48:14;;;;;;;13.50;4.03;;;10.70;99.90;;;;;;5031990;28;20185;-84
2023/12/21 01:50:41;;;;;;;13.90;4.00;;;10.70;99.90;;;;;;5031299;28;20190;-88
2023/12/21 01:53:09;;;;;;;15.43;3.90;;;10.80;99.90;;;;;;5031366;28;20216;-87
2023/12/21 01:55:35;;;;;;;12.07;3.53;;;10.80;99.90;;;;;;5031694;28;20256;-90
2023/12/21 01:58:01;;;;;;;13.90;3.70;;;10.90;99.90;;;;;;5032866;28;20225;-84
2023/12/21 02:00:28;;;;;;;19.57;4.03;;;10.90;99.90;;;;;;5032685;28;20186;-87
2023/12/21 02:02:54;;;;;;;15.30;3.77;;;11.00;99.90;;;;;;5032504;28;20272;-84
2023/12/21 02:05:20;;;;;;;16.40;4.23;;;10.90;99.90;;;;;;5032016;28;20206;-86
2023/12/21 02:07:46;;;;;;;12.63;4.50;;;10.90;99.90;;;;;;5032950;28;20225;-88
2023/12/21 02:10:12;;;;;;;18.03;4.03;;;10.90;99.90;;;;;;5031885;28;20202;-87
2023/12/21 02:12:38;;;;;;;16.37;4.20;;;10.90;99.90;;;;;;5032173;28;20181;-87
2023/12/21 02:15:06;;;;;;;13.67;3.73;;;11.00;99.90;;;;;;5031743;28;20653;-89
2023/12/21 02:17:33;;;;;;;18.90;4.07;;;11.00;99.90;;;;;;5031995;28;20221;-87
2023/12/21 02:19:59;;;;;;;16.40;3.70;;;11.00;99.90;;;;;;5032290;28;20176;-89
2023/12/21 02:22:26;;;;;;;12.83;3.70;;;11.00;99.90;;;;;;5032504;28;20182;-87
2023/12/21 02:24:52;;;;;;;13.77;4.00;;;11.00;99.90;;;;;;5031501;28;20501;-87
2023/12/21 02:27:18;;;;;;;16.10;3.87;;;10.90;99.90;;;;;;5030584;28;20182;-88
2023/12/21 02:29:44;;;;;;;21.30;5.47;;;11.00;99.90;;;;;;5031065;28;20217;-87
2023/12/21 02:32:09;;;;;;;19.03;4.80;;;11.00;99.90;;;;;;5032091;28;20249;-87
2023/12/21 02:34:35;;;;;;;16.97;4.63;;;10.90;99.90;;;;;;5031815;28;20174;-84
2023/12/21 02:37:01;;;;;;;14.40;4.53;;;11.00;99.90;;;;;;5032691;28;20209;-87
2023/12/21 02:39:26;;;;;;;17.63;4.53;;;10.90;99.90;;;;;;5031883;28;20202;-87
2023/12/21 02:41:53;;;;;;;14.97;4.67;;;10.80;99.90;;;;;;5031569;28;20697;-87
2023/12/21 02:44:18;;;;;;;17.00;4.93;;;10.90;99.90;;;;;;5032676;28;20678;-87
2023/12/21 02:46:44;;;;;;;17.53;4.77;;;10.90;99.90;;;;;;5032439;28;20244;-87
2023/12/21 02:49:10;;;;;;;19.50;4.20;;;10.90;99.90;;;;;;5031842;28;20708;-88
2023/12/21 02:51:35;;;;;;;13.80;4.90;;;10.90;99.90;;;;;;5031576;28;20529;-88
2023/12/21 02:54:01;;;;;;;20.30;5.17;;;10.90;99.90;;;;;;5034130;28;20636;-87
2023/12/21 02:56:27;;;;;;;15.67;4.37;;;11.00;99.90;;;;;;5035462;28;20733;-86
2023/12/21 02:58:52;;;;;;;18.13;5.43;;;11.00;99.90;;;;;;5035315;28;20664;-87
2023/12/21 03:01:18;;;;;;;20.57;5.13;;;11.00;99.90;;;;;;5034516;28;20172;-88
2023/12/21 03:03:44;;;;;;;17.50;4.40;;;11.00;99.90;;;;;;5035189;28;20178;-85
2023/12/21 03:06:09;;;;;;;16.37;4.37;;;11.10;99.90;;;;;;5035197;28;20195;-87
2023/12/21 03:08:35;;;;;;;17.40;4.10;;;11.10;99.90;;;;;;5033732;28;20637;-87
2023/12/21 03:11:01;;;;;;;12.60;3.70;;;11.10;99.90;;;;;;5035875;28;20607;-86
2023/12/21 03:13:26;;;;;;;18.30;4.40;;;11.00;99.90;;;;;;5034985;28;20271;-87
2023/12/21 03:15:52;;;;;;;17.57;4.23;;;10.90;99.90;;;;;;5034152;28;20207;-87
2023/12/21 03:18:17;;;;;;;16.80;4.77;;;11.00;99.90;;;;;;5035182;28;20182;-87
2023/12/21 03:20:43;;;;;;;16.87;4.87;;;11.00;99.90;;;;;;5033928;28;20248;-88
2023/12/21 03:23:09;;;;;;;21.03;5.20;;;11.00;99.90;;;;;;5034246;28;20657;-85
2023/12/21 03:25:34;;;;;;;18.07;4.37;;;11.10;99.90;;;;;;5034978;28;20198;-87
2023/12/21 03:28:00;;;;;;;15.63;4.17;;;11.10;99.90;;;;;;5034431;28;20181;-88
2023/12/21 03:30:26;;;;;;;16.43;4.33;;;11.00;99.90;;;;;;5034726;28;20173;-83
2023/12/21 03:32:51;;;;;;;24.47;5.33;;;11.00;99.90;;;;;;5032870;28;20181;-87
2023/12/21 03:35:18;;;;;;;20.50;4.97;;;11.10;99.90;;;;;;5032856;28;20970;-88
2023/12/21 03:37:43;;;;;;;14.30;4.97;;;11.00;99.90;;;;;;5033114;28;20205;-88
2023/12/21 03:40:09;;;;;;;14.23;3.97;;;11.10;99.90;;;;;;5034085;28;20575;-86
2023/12/21 03:42:35;;;;;;;18.60;4.97;;;11.10;99.90;;;;;;5033724;28;20178;-89
2023/12/21 03:45:01;;;;;;;18.70;4.30;;;11.10;99.90;;;;;;5034432;28;20631;-87
2023/12/21 03:47:26;;;;;;;17.37;3.90;;;11.10;99.90;;;;;;5034173;28;20182;-87
2023/12/21 03:49:52;;;;;;;16.37;4.33;;;11.10;99.90;;;;;;5034427;28;20612;-85
2023/12/21 03:52:18;;;;;;;15.03;4.37;;;11.10;99.90;;;;;;5034160;28;20630;-88
2023/12/21 03:54:43;;;;;;;21.80;5.40;;;11.10;99.90;;;;;;5033825;28;20231;-87
2023/12/21 03:57:09;;;;;;;17.50;4.70;;;11.10;99.90;;;;;;5034014;28;20582;-88
2023/12/21 03:59:35;;;;;;;16.87;4.60;;;11.10;99.90;;;;;;5034387;28;20174;-88
2023/12/21 04:02:01;;;;;;;16.43;4.87;;;11.20;99.90;;;;;;5035339;28;20670;-87
2023/12/21 04:04:27;;;;;;;14.27;3.40;;;11.10;99.90;;;;;;5033597;28;20256;-88
2023/12/21 04:06:53;;;;;;;14.87;3.63;;;11.10;99.90;;;;;;5033072;28;20258;-88
2023/12/21 04:09:19;;;;;;;14.70;3.97;;;11.10;99.90;;;;;;5034240;28;20166;-87
2023/12/21 04:11:44;;;;;;;13.53;4.17;;;11.10;99.90;;;;;;5033972;28;20265;-87
2023/12/21 04:14:10;;;;;;;11.57;3.67;;;11.10;99.90;;;;;;5033995;28;20759;-86
2023/12/21 04:16:36;;;;;;;12.93;3.67;;;11.10;99.90;;;;;;5033413;28;20268;-89
2023/12/21 04:19:03;;;;;;;18.87;4.03;;;11.10;99.90;;;;;;5033662;28;20206;-87
2023/12/21 04:21:30;;;;;;;18.53;4.07;;;11.20;99.90;;;;;;5033068;28;20177;-84
2023/12/21 04:23:55;;;;;;;17.43;4.47;;;11.20;99.90;;;;;;5033155;28;20178;-83
2023/12/21 04:26:22;;;;;;;15.57;3.97;;;11.20;99.90;;;;;;5033836;28;20604;-83
2023/12/21 04:28:49;;;;;;;17.00;4.77;;;11.20;99.90;;;;;;5033642;28;20540;-87
2023/12/21 04:31:21;;;;;;;18.17;3.47;;;11.20;99.90;;;;;;5034238;28;20211;-87
2023/12/21 04:33:51;;;;;;;18.77;4.43;;;11.30;99.90;;;;;;5033458;28;20182;-85
2023/12/21 04:36:18;;;;;;;16.33;4.57;;;11.30;99.90;;;;;;5033374;28;20198;-85
2023/12/21 04:38:43;;;;;;;15.43;4.03;;;11.30;99.90;;;;;;5031853;28;20179;-85
2023/12/21 04:41:09;;;;;;;15.23;4.07;;;11.30;99.90;;;;;;5033425;28;20475;-84
2023/12/21 04:43:35;;;;;;;16.40;4.67;;;11.30;99.90;;;;;;5034744;28;20181;-87
2023/12/21 04:46:00;;;;;;;14.77;3.97;;;11.30;99.90;;;;;;5033222;28;20176;-84
2023/12/21 04:48:26;;;;;;;16.20;5.10;;;11.30;99.90;;;;;;5032216;28;20178;-87
2023/12/21 04:50:52;;;;;;;15.37;3.97;;;11.40;99.90;;;;;;5032876;28;20583;-88
2023/12/21 04:53:17;;;;;;;14.43;4.13;;;11.40;99.90;;;;;;5032809;28;20173;-87
2023/12/21 04:55:43;;;;;;;14.77;4.00;;;11.40;99.90;;;;;;5034117;28;20170;-87
2023/12/21 04:58:09;;;;;;;11.93;3.97;;;11.40;99.90;;;;;;5033271;28;20265;-86
2023/12/21 05:00:35;;;;;;;14.73;3.80;;;11.40;99.90;;;;;;5034034;28;20221;-88
2023/12/21 05:03:01;;;;;;;17.07;3.83;;;11.40;99.90;;;;;;5032540;28;20182;-86
2023/12/21 05:05:26;;;;;;;18.43;4.67;;;11.40;99.90;;;;;;5032537;28;20575;-86
2023/12/21 05:07:53;;;;;;;15.17;4.40;;;11.50;99.90;;;;;;5032209;28;20178;-84
2023/12/21 05:10:19;;;;;;;15.63;4.10;;;11.50;99.90;;;;;;5032783;28;20190;-83
2023/12/21 05:12:44;;;;;;;17.23;3.90;;;11.50;99.90;;;;;;5032719;28;20173;-86
2023/12/21 05:15:10;;;;;;;10.90;3.00;;;11.50;99.90;;;;;;5032920;28;20672;-87
2023/12/21 05:17:36;;;;;;;13.83;3.73;;;11.40;99.90;;;;;;5032375;28;20218;-87
2023/12/21 05:20:03;;;;;;;12.47;4.00;;;11.50;99.90;;;;;;5031470;28;20180;-88
2023/12/21 05:22:28;;;;;;;18.23;4.50;;;11.40;99.90;;;;;;5033601;28;20170;-87
2023/12/21 05:24:54;;;;;;;13.53;4.50;;;11.50;99.90;;;;;;5033597;28;20273;-86
2023/12/21 05:27:20;;;;;;;18.23;4.40;;;11.50;99.90;;;;;;5032760;28;20265;-87
2023/12/21 05:29:46;;;;;;;15.27;4.17;;;11.50;99.90;;;;;;5032160;28;20176;-86
2023/12/21 05:32:11;;;;;;;11.83;3.60;;;11.50;99.90;;;;;;5045841;28;20174;-82
2023/12/21 05:34:37;;;;;;;13.27;4.00;;;11.50;99.90;;;;;;5045070;28;20170;-82
2023/12/21 05:37:03;;;;;;;20.37;4.43;;;11.50;99.90;;;;;;5045050;28;20206;-82
2023/12/21 05:39:29;;;;;;;15.97;3.90;;;11.50;99.90;;;;;;5046348;28;20966;-85
2023/12/21 05:41:55;;;;;;;19.10;4.40;;;11.50;99.90;;;;;;5033008;28;20234;-87
2023/12/21 05:44:21;;;;;;;10.93;3.33;;;11.60;99.90;;;;;;5032197;28;20187;-83
2023/12/21 05:46:46;;;;;;;13.17;3.70;;;11.60;99.90;;;;;;5031895;28;20209;-82
2023/12/21 05:49:12;;;;;;;15.53;3.90;;;11.60;99.90;;;;;;5032022;28;20180;-86
2023/12/21 05:51:38;;;;;;;14.77;3.70;;;11.60;99.90;;;;;;5033458;28;20210;-82
2023/12/21 05:54:05;;;;;;;16.97;3.73;;;11.60;99.90;;;;;;5033079;28;20171;-86
2023/12/21 05:56:31;;;;;;;15.90;3.57;;;11.70;99.90;;;;;;5030954;28;20208;-86
2023/12/21 05:58:57;;;;;;;12.97;3.80;;;11.70;99.90;;;;;;5031381;28;20527;-86
2023/12/21 06:01:23;;;;;;;12.70;3.60;;;11.70;99.90;;;;;;5031488;28;20170;-86
2023/12/21 06:03:49;;;;;;;14.23;3.70;;;11.70;99.90;;;;;;5032204;28;20185;-84
2023/12/21 06:06:15;;;;;;;13.33;3.30;;;11.60;99.90;;;;;;5031609;28;20204;-88
2023/12/21 06:08:41;;;;;;;10.93;2.90;;;11.70;99.90;;;;;;5030155;28;20285;-83
2023/12/21 06:11:07;;;;;;;12.30;3.33;;;11.70;99.90;;;;;;5032030;28;20195;-89
2023/12/21 06:13:35;;;;;;;9.73;2.70;;;11.70;99.90;;;;;;5032209;28;20631;-88
2023/12/21 06:16:01;;;;;;;13.17;3.23;;;11.70;99.90;;;;;;5032785;28;20685;-83
2023/12/21 06:18:28;;;;;;;14.77;3.00;;;11.70;99.90;;;;;;5031538;28;20183;-89
2023/12/21 06:20:53;;;;;;;9.77;3.03;;;11.70;99.90;;;;;;5031965;28;20180;-85
2023/12/21 06:23:20;;;;;;;10.43;2.90;;;11.80;99.90;;;;;;5031972;28;20190;-88
2023/12/21 06:25:47;;;;;;;10.43;2.87;;;11.70;99.90;;;;;;5031974;28;20199;-87
2023/12/21 06:28:12;;;;;;;7.60;2.57;;;11.70;99.90;;;;;;5032014;28;20277;-86
2023/12/21 06:30:38;;;;;;;12.20;2.63;;;11.70;99.90;;;;;;5036781;28;20254;-85
2023/12/21 06:33:04;;;;;;;8.37;3.03;;;11.70;99.90;;;;;;5034043;28;20182;-86
2023/12/21 06:35:30;;;;;;;13.33;2.97;;;11.70;99.90;;;;;;5035013;28;20629;-86
2023/12/21 06:37:55;;;;;;;7.37;2.57;;;11.70;99.90;;;;;;5035258;28;20215;-88
2023/12/21 06:40:21;;;;;;;9.90;3.07;;;11.70;99.90;;;;;;5034778;28;20201;-84
2023/12/21 06:42:46;;;;;;;10.87;2.93;;;11.70;99.90;;;;;;5035997;28;20665;-84
2023/12/21 06:45:12;;;;;;;10.63;3.00;;;11.70;99.90;;;;;;5034715;28;20608;-83
2023/12/21 06:47:38;;;;;;;11.00;2.57;;;11.70;99.90;;;;;;5034697;28;20551;-86
2023/12/21 06:50:05;;;;;;;12.37;2.63;;;11.70;99.90;;;;;;5036204;28;20178;-87
2023/12/21 06:52:30;;;;;;;10.37;3.00;;;11.80;99.90;;;;;;5034932;28;20657;-87
2023/12/21 06:54:57;;;;;;;9.30;2.60;;;11.90;99.90;;;;;;5033831;28;20176;-87
2023/12/21 06:57:23;;;;;;;10.33;2.80;;;11.80;99.90;;;;;;5033633;28;20205;-84
2023/12/21 06:59:49;;;;;;;12.67;3.23;;;11.90;99.90;;;;;;5034807;28;20178;-87
2023/12/21 07:02:15;;;;;;;9.33;2.90;;;11.80;99.90;;;;;;5034431;28;20182;-88
2023/12/21 07:04:41;;;;;;;11.10;2.87;;;11.90;99.90;;;;;;5033928;28;20178;-86
2023/12/21 07:07:07;;;;;;;12.07;2.87;;;11.90;99.90;;;;;;5034579;28;20178;-86
2023/12/21 07:09:32;;;;;;;9.40;3.07;;;11.90;99.90;;;;;;5035517;28;20671;-84
2023/12/21 07:12:00;;;;;;;9.40;2.97;;;11.80;99.90;;;;;;5035163;28;20188;-83
2023/12/21 07:14:26;;;;;;;8.37;2.33;;;11.80;99.90;;;;;;5033804;28;20179;-84
2023/12/21 07:16:52;;;;;;;9.53;2.27;;;11.80;99.90;;;;;;5033257;28;20300;-85
2023/12/21 07:19:17;;;;;;;9.80;2.40;;;11.80;99.90;;;;;;5034153;28;20203;-89
2023/12/21 07:21:43;;;;;;;8.37;2.43;;;11.80;99.90;;;;;;5034651;28;20189;-85
2023/12/21 07:24:09;;;;;;;8.37;2.40;;;11.90;99.90;;;;;;5034695;28;20203;-83
2023/12/21 07:26:35;;;;;;;10.43;2.60;;;11.90;99.90;;;;;;5033724;28;20172;-86
2023/12/21 07:29:01;;;;;;;10.03;2.77;;;11.90;99.90;;;;;;5034028;28;20175;-87
2023/12/21 07:31:26;;;;;;;11.20;2.67;;;11.90;99.90;;;;;;5034276;28;20542;-86
2023/12/21 07:33:52;;;;;;;8.20;2.33;;;11.90;99.90;;;;;;5034436;28;20179;-85
2023/12/21 07:36:18;;;;;;;7.70;2.40;;;11.90;99.90;;;;;;5034107;28;20247;-87
2023/12/21 07:38:44;;;;;;;10.57;2.20;;;11.90;99.90;;;;;;5034184;28;20187;-88
2023/12/21 07:41:10;;;;;;;9.03;2.70;;;11.90;99.90;;;;;;5034367;28;20586;-87
2023/12/21 07:43:38;;;;;;;11.10;3.20;;;11.90;99.90;;;;;;5033736;28;20176;-87
2023/12/21 07:46:04;;;;;;;12.53;2.73;;;11.90;99.90;;;;;;5035136;28;20178;-89
2023/12/21 07:48:30;;;;;;;6.67;2.10;;;11.90;99.90;;;;;;5034292;28;20514;-89
2023/12/21 07:50:55;;;;;;;6.93;2.20;;;11.90;99.90;;;;;;5034788;28;20177;-89
2023/12/21 07:53:21;;;;;;;8.47;2.80;;;11.90;99.90;;;;;;5034936;28;20552;-91
2023/12/21 07:55:47;;;;;;;7.23;2.07;;;12.00;99.90;;;;;;5033679;28;20201;-87
2023/12/21 07:58:13;;;;;;;7.37;2.10;;;11.90;99.90;;;;;;5037072;28;20246;-84
2023/12/21 08:00:38;;;;;;;11.50;2.93;;;12.00;99.90;;;;;;5045226;28;20201;-82
2023/12/21 08:03:04;;;;;;;8.93;2.17;;;12.00;99.90;;;;;;5047742;28;20188;-89
2023/12/21 08:05:30;;;;;;;10.43;2.40;;;11.90;99.90;;;;;;5044641;28;20181;-85
2023/12/21 08:07:55;;;;;;;11.77;2.23;;;12.00;99.90;;;;;;5039823;28;20175;-89
2023/12/21 08:10:21;;;;;;;11.07;2.17;;;11.90;99.90;;;;;;5036397;28;20683;-91
2023/12/21 08:12:47;;;;;;;7.13;1.80;;;11.90;99.90;;;;;;5035693;28;20538;-91
2023/12/21 08:15:14;;;;;;;6.33;2.43;;;11.80;99.90;;;;;;5035062;28;20179;-91
2023/12/21 08:17:41;;;;;;;7.17;2.37;;;11.80;99.90;;;;;;5034442;28;20225;-89
2023/12/21 08:20:07;;;;;;;5.60;1.97;;;11.80;99.90;;;;;;5033422;28;20701;-92
2023/12/21 08:22:33;;;;;;;8.07;2.10;;;11.80;99.90;;;;;;5033186;28;20648;-84
2023/12/21 08:24:59;;;;;;;6.27;1.63;;;11.80;99.90;;;;;;5033814;28;20191;-84
2023/12/21 08:27:27;;;;;;;10.77;2.80;;;11.90;99.90;;;;;;5034471;28;20179;-92
2023/12/21 08:29:53;;;;;;;4.47;1.60;;;11.90;99.90;;;;;;5033127;28;20173;-90
2023/12/21 08:32:19;;;;;;;6.47;2.03;;;11.90;99.90;;;;;;5033382;28;20177;-86
2023/12/21 08:34:45;;;;;;;6.10;1.50;;;12.00;99.90;;;;;;5032017;28;20231;-89
2023/12/21 08:37:12;;;;;;;7.20;2.03;;;11.90;99.90;;;;;;5032888;28;20215;-88
2023/12/21 08:39:41;;;;;;;6.97;2.47;;;12.00;99.90;;;;;;5032815;28;20911;-88
2023/12/21 08:42:10;;;;;;;7.87;1.70;;;12.00;99.90;;;;;;5032436;28;20561;-83
2023/12/21 08:44:39;;;;;;;6.30;2.00;;;11.90;99.90;;;;;;5032920;28;20181;-89
2023/12/21 08:47:05;;;;;;;5.90;1.97;;;11.90;99.90;;;;;;5032459;28;20173;-84
2023/12/21 08:49:31;;;;;;;7.20;2.40;;;11.90;99.90;;;;;;5032520;28;20247;-88
2023/12/21 08:51:56;;;;;;;15.67;8.47;;;12.00;99.90;;;;;;5032220;28;20662;-89
2023/12/21 08:54:22;;;;;;;8.53;2.80;;;12.10;99.90;;;;;;5033375;28;20174;-91
2023/12/21 08:56:50;;;;;;;6.10;2.27;;;12.10;99.90;;;;;;5032233;28;20701;-88
2023/12/21 08:59:16;;;;;;;7.63;2.20;;;12.10;99.90;;;;;;5032303;28;20654;-85
2023/12/21 09:01:43;;;;;;;5.50;2.43;;;12.10;99.90;;;;;;5032520;28;20179;-86
2023/12/21 09:04:09;;;;;;;5.27;1.67;;;12.10;99.90;;;;;;5033163;28;20511;-88
2023/12/21 09:06:35;;;;;;;6.03;1.90;;;12.20;99.90;;;;;;5032787;28;20227;-84
2023/12/21 09:09:02;;;;;;;6.20;2.23;;;12.20;99.90;;;;;;5032473;28;20178;-88
2023/12/21 09:11:28;;;;;;;5.80;1.67;;;12.30;99.90;;;;;;5032193;28;20192;-90
2023/12/21 09:13:58;;;;;;;8.67;4.67;;;12.30;99.90;;;;;;5034205;28;20255;-83
2023/12/21 09:16:24;;;;;;;9.10;3.57;;;12.30;99.90;;;;;;5032850;28;20588;-86
2023/12/21 09:18:52;;;;;;;7.97;4.10;;;12.40;99.90;;;;;;5033285;28;20184;-88
2023/12/21 09:21:18;;;;;;;8.70;4.70;;;12.40;99.90;;;;;;5031619;28;20172;-90
2023/12/21 09:23:43;;;;;;;5.27;1.80;;;12.50;99.90;;;;;;5033328;28;20195;-88
2023/12/21 09:26:10;;;;;;;4.50;1.63;;;12.50;99.90;;;;;;5031907;28;20172;-91
2023/12/21 09:28:37;;;;;;;6.90;2.57;;;12.50;99.90;;;;;;5032334;28;20232;-89
2023/12/21 09:31:04;;;;;;;5.37;1.70;;;12.50;99.90;;;;;;5032187;28;20179;-90
2023/12/21 09:33:33;;;;;;;4.70;1.57;;;12.50;99.90;;;;;;5032266;28;20686;-90
2023/12/21 09:36:01;;;;;;;6.47;3.10;;;12.50;99.90;;;;;;5032748;28;20360;-83
2023/12/21 09:38:26;;;;;;;8.43;4.77;;;12.50;99.90;;;;;;5033572;28;20178;-88
2023/12/21 09:40:53;;;;;;;7.97;3.33;;;12.50;99.90;;;;;;5034495;28;20176;-86
2023/12/21 09:43:21;;;;;;;5.33;1.63;;;12.60;99.90;;;;;;5038578;28;20182;-90
2023/12/21 09:45:52;;;;;;;3.20;1.40;;;12.60;99.90;;;;;;5033703;28;20177;-89
2023/12/21 09:48:20;;;;;;;4.17;1.27;;;12.60;99.90;;;;;;5033106;28;20621;-89
2023/12/21 09:50:51;;;;;;;3.87;1.13;;;12.70;99.90;;;;;;5033820;28;20179;-90
2023/12/21 09:53:19;;;;;;;3.80;1.20;;;12.70;99.90;;;;;;5033001;28;20196;-88
2023/12/21 09:55:48;;;;;;;4.80;1.50;;;12.80;99.90;;;;;;5033117;28;20174;-89
2023/12/21 09:58:15;;;;;;;3.97;1.47;;;12.80;99.90;;;;;;5035656;28;20299;-90
2023/12/21 10:00:41;;;;;;;4.53;1.57;;;12.80;99.90;;;;;;5035424;28;20176;-86
2023/12/21 10:03:07;;;;;;;3.10;1.43;;;12.90;99.90;;;;;;5034486;28;20169;-88
2023/12/21 10:05:34;;;;;;;5.50;1.90;;;12.90;99.90;;;;;;5045281;28;20172;-88
2023/12/21 10:08:05;;;;;;;5.77;2.80;;;12.90;99.90;;;;;;5044113;28;20225;-93
2023/12/21 10:10:30;;;;;;;11.50;5.20;;;12.90;99.90;;;;;;5046818;28;20231;-89
2023/12/21 10:12:58;;;;;;;19.90;12.70;;;12.90;99.90;;;;;;5048613;28;20180;-91
2023/12/21 10:15:24;;;;;;;4.67;1.60;;;12.90;99.90;;;;;;5046762;28;20206;-87
2023/12/21 10:17:54;;;;;;;5.00;1.50;;;12.90;99.90;;;;;;5046756;28;20241;-89
2023/12/21 10:20:23;;;;;;;5.93;1.50;;;12.90;99.90;;;;;;5059248;28;20178;-82
2023/12/21 10:22:48;;;;;;;3.53;1.40;;;12.90;99.90;;;;;;5044182;28;20184;-91
2023/12/21 10:25:14;;;;;;;3.27;1.07;;;12.90;99.90;;;;;;5038797;28;20683;-91
2023/12/21 10:27:42;;;;;;;4.10;1.60;;;13.00;99.90;;;;;;5036274;28;20166;-89
2023/12/21 10:30:09;;;;;;;3.67;1.63;;;12.90;99.90;;;;;;5036706;28;20191;-83
2023/12/21 10:32:35;;;;;;;10.03;3.27;;;12.90;99.90;;;;;;5036054;28;20192;-91
2023/12/21 10:35:01;;;;;;;5.37;2.60;;;13.00;99.90;;;;;;5035628;28;20178;-90
2023/12/21 10:37:28;;;;;;;10.27;4.23;;;13.00;99.90;;;;;;5036869;28;20201;-91
2023/12/21 10:39:56;;;;;;;4.27;1.77;;;13.00;99.90;;;;;;5036944;28;20166;-90
2023/12/21 10:42:22;;;;;;;4.13;1.20;;;13.00;99.90;;;;;;5039003;28;20668;-91
2023/12/21 10:44:48;;;;;;;5.97;2.13;;;13.00;99.90;;;;;;5040272;28;20216;-89
2023/12/21 10:47:18;;;;;;;6.27;1.50;;;13.10;99.90;;;;;;5039285;28;20977;-84
2023/12/21 10:49:45;;;;;;;3.37;1.60;;;13.10;99.90;;;;;;5040194;28;20178;-89
2023/12/21 10:52:12;;;;;;;3.77;1.30;;;13.10;99.90;;;;;;5041531;28;20460;-89
2023/12/21 10:54:41;;;;;;;4.43;1.40;;;13.10;99.90;;;;;;5040004;28;20177;-85
2023/12/21 10:57:08;;;;;;;4.83;1.10;;;13.10;99.90;;;;;;5039806;28;20255;-90
2023/12/21 10:59:35;;;;;;;4.70;1.50;;;13.20;99.90;;;;;;5038799;28;20178;-88
2023/12/21 11:02:10;;;;;;;3.37;1.27;;;13.10;99.90;;;;;;5037583;28;20254;-87
2023/12/21 11:04:37;;;;;;;2.23;1.07;;;13.10;99.90;;;;;;5038008;28;20176;-89
2023/12/21 11:07:06;;;;;;;3.97;1.10;;;13.10;99.90;;;;;;5037308;28;20280;-85
2023/12/21 11:09:32;;;;;;;3.13;1.40;;;13.10;99.90;;;;;;5037419;28;20211;-86
2023/12/21 11:11:58;;;;;;;3.40;1.20;;;13.10;99.90;;;;;;5038123;28;20194;-89
2023/12/21 11:14:24;;;;;;;4.20;1.20;;;13.10;99.90;;;;;;5036103;28;20197;-88
2023/12/21 11:16:55;;;;;;;2.43;1.00;;;13.10;99.90;;;;;;5038182;28;20300;-88
2023/12/21 11:19:27;;;;;;;2.97;1.07;;;13.10;99.90;;;;;;5036792;28;20550;-88
2023/12/21 11:21:55;;;;;;;2.57;1.10;;;13.10;99.90;;;;;;5036223;28;20276;-89
2023/12/21 11:24:24;;;;;;;2.23;1.13;;;13.10;99.90;;;;;;5034489;28;20284;-90
2023/12/21 11:26:50;;;;;;;4.97;1.30;;;13.20;99.90;;;;;;5035188;28;20186;-90
2023/12/21 11:29:28;;;;;;;4.23;1.20;;;13.20;99.90;;;;;;5021582;28;20623;-88
2023/12/21 11:31:55;;;;;;;3.50;1.20;;;13.30;99.90;;;;;;5029693;28;20299;-88
2023/12/21 11:34:39;;;;;;;4.93;1.10;;;13.30;99.90;;;;;;5034774;28;20268;-90
2023/12/21 11:37:25;;;;;;;3.23;1.20;;;13.20;99.90;;;;;;5034685;28;20395;-89
2023/12/21 11:39:59;;;;;;;4.43;1.17;;;13.30;99.90;;;;;;5034481;28;20656;-85
2023/12/21 11:42:36;;;;;;;3.63;1.23;;;13.20;99.90;;;;;;5034138;28;20178;-92
2023/12/21 11:45:09;;;;;;;2.60;1.03;;;13.10;99.90;;;;;;5034283;28;20192;-90
2023/12/21 11:47:35;;;;;;;3.93;0.90;;;13.10;99.90;;;;;;5014120;28;20183;-89
2023/12/21 11:50:08;;;;;;;3.37;1.00;;;13.00;99.90;;;;;;5035123;28;20269;-88
2023/12/21 11:52:34;;;;;;;2.77;1.00;;;13.00;99.90;;;;;;5034019;28;20192;-91
2023/12/21 11:55:00;;;;;;;2.37;0.67;;;12.80;99.90;;;;;;5034057;28;20181;-87
2023/12/21 11:57:31;;;;;;;4.00;1.30;;;12.70;99.90;;;;;;5033676;28;20216;-85
2023/12/21 12:00:15;;;;;;;4.37;1.67;;;12.70;99.90;;;;;;5034014;28;20193;-90
2023/12/21 12:02:44;;;;;;;2.43;1.40;;;12.60;99.90;;;;;;5034878;28;20265;-90
2023/12/21 12:05:20;;;;;;;3.30;1.20;;;12.60;99.90;;;;;;5034464;28;20199;-88
2023/12/21 12:07:49;;;;;;;3.40;1.13;;;12.60;99.90;;;;;;5033568;28;20184;-90
2023/12/21 12:10:16;;;;;;;3.13;1.33;;;12.70;99.90;;;;;;5032980;28;20247;-86
2023/12/21 12:12:42;;;;;;;3.57;1.17;;;12.70;99.90;;;;;;5033606;28;20177;-89
2023/12/21 12:15:08;;;;;;;2.87;1.00;;;12.80;99.90;;;;;;5034260;28;20552;-91
2023/12/21 12:17:42;;;;;;;5.10;1.20;;;12.80;99.90;;;;;;5035339;28;20713;-88
2023/12/21 12:20:09;;;;;;;5.13;1.80;;;12.80;99.90;;;;;;5034531;28;20177;-89
2023/12/21 12:22:36;;;;;;;4.93;1.57;;;12.80;99.90;;;;;;5034762;28;20174;-87
2023/12/21 12:25:03;;;;;;;3.17;1.43;;;12.90;99.90;;;;;;5034886;28;20578;-91
2023/12/21 12:27:29;;;;;;;4.90;1.47;;;12.90;99.90;;;;;;5035750;28;20218;-89
2023/12/21 12:29:55;;;;;;;4.80;1.30;;;12.90;99.90;;;;;;5033884;28;20208;-88
2023/12/21 12:32:21;;;;;;;5.13;1.70;;;13.00;99.90;;;;;;5033425;28;20681;-88
2023/12/21 12:34:47;;;;;;;4.63;1.37;;;12.90;99.90;;;;;;5032814;28;20162;-91
2023/12/21 12:37:15;;;;;;;4.73;1.60;;;12.90;99.90;;;;;;5033396;28;20247;-93